sensor_id;sensor_type;location;lat;lon;timestamp;pressure;altitude;pressure_sealevel;temperature;humidity
66887;BME280;53798;51.680;5.976;2022-09-09T00:04:57;100687.81;;;14.27;87.12
66887;BME280;53798;51.680;5.976;2022-09-09T00:07:49;100688.97;;;14.21;87.35
66887;BME280;53798;51.680;5.976;2022-09-09T00:10:25;100692.53;;;14.20;87.73
66887;BME280;53798;51.680;5.976;2022-09-09T00:16:35;100691.78;;;14.18;87.63
66887;BME280;53798;51.680;5.976;2022-09-09T00:19:33;100690.78;;;14.21;88.08
66887;BME280;53798;51.680;5.976;2022-09-09T00:24:51;100679.38;;;14.19;87.95
66887;BME280;53798;51.680;5.976;2022-09-09T00:27:40;100672.34;;;14.18;87.93
66887;BME280;53798;51.680;5.976;2022-09-09T00:32:38;100677.88;;;14.13;88.17
66887;BME280;53798;51.680;5.976;2022-09-09T00:37:56;100673.66;;;14.09;88.26
66887;BME280;53798;51.680;5.976;2022-09-09T00:40:33;100674.59;;;14.08;88.33
66887;BME280;53798;51.680;5.976;2022-09-09T00:43:25;100673.00;;;14.04;88.29
66887;BME280;53798;51.680;5.976;2022-09-09T00:46:25;100678.44;;;14.01;88.38
66887;BME280;53798;51.680;5.976;2022-09-09T00:49:15;100674.16;;;13.98;88.40
66887;BME280;53798;51.680;5.976;2022-09-09T00:55:15;100664.78;;;13.91;88.25
66887;BME280;53798;51.680;5.976;2022-09-09T00:57:52;100675.44;;;13.89;88.64
66887;BME280;53798;51.680;5.976;2022-09-09T01:00:29;100664.94;;;13.88;88.80
66887;BME280;53798;51.680;5.976;2022-09-09T01:09:38;100671.31;;;13.84;88.56
66887;BME280;53798;51.680;5.976;2022-09-09T01:12:41;100664.44;;;13.79;89.00
66887;BME280;53798;51.680;5.976;2022-09-09T01:15:34;100667.16;;;13.78;89.07
66887;BME280;53798;51.680;5.976;2022-09-09T01:18:23;100659.22;;;13.78;89.35
66887;BME280;53798;51.680;5.976;2022-09-09T01:27:23;100643.59;;;13.72;89.33
66887;BME280;53798;51.680;5.976;2022-09-09T01:29:52;100654.19;;;13.72;89.45
66887;BME280;53798;51.680;5.976;2022-09-09T01:32:44;100659.47;;;13.72;89.38
66887;BME280;53798;51.680;5.976;2022-09-09T01:38:12;100652.47;;;13.71;89.58
66887;BME280;53798;51.680;5.976;2022-09-09T01:40:40;100659.56;;;13.70;89.78
66887;BME280;53798;51.680;5.976;2022-09-09T01:43:08;100660.41;;;13.71;89.70
66887;BME280;53798;51.680;5.976;2022-09-09T01:45:38;100661.41;;;13.68;89.52
66887;BME280;53798;51.680;5.976;2022-09-09T01:48:08;100652.69;;;13.66;89.47
66887;BME280;53798;51.680;5.976;2022-09-09T01:53:48;100651.03;;;13.63;89.62
66887;BME280;53798;51.680;5.976;2022-09-09T01:56:38;100652.84;;;13.63;89.72
66887;BME280;53798;51.680;5.976;2022-09-09T01:59:24;100656.34;;;13.63;89.89
66887;BME280;53798;51.680;5.976;2022-09-09T02:02:30;100651.13;;;13.62;89.75
66887;BME280;53798;51.680;5.976;2022-09-09T02:05:31;100645.88;;;13.60;89.94
66887;BME280;53798;51.680;5.976;2022-09-09T02:08:24;100645.88;;;13.60;90.07
66887;BME280;53798;51.680;5.976;2022-09-09T02:11:22;100655.53;;;13.61;90.17
66887;BME280;53798;51.680;5.976;2022-09-09T02:14:14;100651.16;;;13.60;90.04
66887;BME280;53798;51.680;5.976;2022-09-09T02:16:50;100646.75;;;13.61;90.30
66887;BME280;53798;51.680;5.976;2022-09-09T02:19:45;100644.00;;;13.62;90.34
66887;BME280;53798;51.680;5.976;2022-09-09T02:22:27;100644.94;;;13.61;90.26
66887;BME280;53798;51.680;5.976;2022-09-09T02:24:59;100641.44;;;13.61;90.40
66887;BME280;53798;51.680;5.976;2022-09-09T02:27:29;100640.53;;;13.62;90.40
66887;BME280;53798;51.680;5.976;2022-09-09T02:29:59;100637.91;;;13.60;90.64
66887;BME280;53798;51.680;5.976;2022-09-09T02:32:42;100638.00;;;13.59;90.68
66887;BME280;53798;51.680;5.976;2022-09-09T02:35:15;100632.63;;;13.60;90.75
66887;BME280;53798;51.680;5.976;2022-09-09T02:37:46;100631.00;;;13.58;90.75
66887;BME280;53798;51.680;5.976;2022-09-09T02:40:15;100628.41;;;13.56;90.82
66887;BME280;53798;51.680;5.976;2022-09-09T02:42:48;100624.84;;;13.57;90.63
66887;BME280;53798;51.680;5.976;2022-09-09T02:45:19;100630.19;;;13.56;90.92
66887;BME280;53798;51.680;5.976;2022-09-09T02:48:14;100631.06;;;13.56;90.86
66887;BME280;53798;51.680;5.976;2022-09-09T02:51:08;100630.13;;;13.57;90.81
66887;BME280;53798;51.680;5.976;2022-09-09T02:54:07;100634.56;;;13.57;90.85
66887;BME280;53798;51.680;5.976;2022-09-09T02:56:40;100635.44;;;13.57;90.83
66887;BME280;53798;51.680;5.976;2022-09-09T02:59:12;100629.25;;;13.57;90.88
66887;BME280;53798;51.680;5.976;2022-09-09T03:01:40;100629.25;;;13.57;91.05
66887;BME280;53798;51.680;5.976;2022-09-09T03:04:09;100640.66;;;13.59;91.08
66887;BME280;53798;51.680;5.976;2022-09-09T03:06:37;100640.56;;;13.60;91.25
66887;BME280;53798;51.680;5.976;2022-09-09T03:09:16;100648.47;;;13.62;91.26
66887;BME280;53798;51.680;5.976;2022-09-09T03:11:44;100646.53;;;13.65;91.46
66887;BME280;53798;51.680;5.976;2022-09-09T03:14:13;100645.59;;;13.66;91.47
66887;BME280;53798;51.680;5.976;2022-09-09T03:16:40;100643.81;;;13.67;91.44
66887;BME280;53798;51.680;5.976;2022-09-09T03:19:09;100644.72;;;13.66;91.41
66887;BME280;53798;51.680;5.976;2022-09-09T03:21:36;100640.16;;;13.70;91.75
66887;BME280;53798;51.680;5.976;2022-09-09T03:24:04;100640.22;;;13.68;91.62
66887;BME280;53798;51.680;5.976;2022-09-09T03:26:33;100641.06;;;13.69;91.78
66887;BME280;53798;51.680;5.976;2022-09-09T03:29:00;100644.50;;;13.71;91.83
66887;BME280;53798;51.680;5.976;2022-09-09T03:31:29;100635.63;;;13.72;91.86
66887;BME280;53798;51.680;5.976;2022-09-09T03:33:58;100633.69;;;13.75;91.93
66887;BME280;53798;51.680;5.976;2022-09-09T03:36:28;100643.38;;;13.76;91.77
66887;BME280;53798;51.680;5.976;2022-09-09T03:38:56;100644.06;;;13.80;91.95
66887;BME280;53798;51.680;5.976;2022-09-09T03:41:26;100637.00;;;13.80;91.83
66887;BME280;53798;51.680;5.976;2022-09-09T03:43:54;100637.84;;;13.81;92.03
66887;BME280;53798;51.680;5.976;2022-09-09T03:46:25;100639.34;;;13.87;92.14
66887;BME280;53798;51.680;5.976;2022-09-09T03:48:53;100636.56;;;13.90;92.27
66887;BME280;53798;51.680;5.976;2022-09-09T03:51:20;100644.22;;;13.96;92.45
66887;BME280;53798;51.680;5.976;2022-09-09T03:53:48;100640.41;;;14.02;92.72
66887;BME280;53798;51.680;5.976;2022-09-09T03:56:15;100648.09;;;14.08;92.59
66887;BME280;53798;51.680;5.976;2022-09-09T03:58:42;100642.56;;;14.12;92.75
66887;BME280;53798;51.680;5.976;2022-09-09T04:01:13;100649.38;;;14.18;92.75
66887;BME280;53798;51.680;5.976;2022-09-09T04:03:42;100645.69;;;14.21;92.53
66887;BME280;53798;51.680;5.976;2022-09-09T04:06:12;100644.69;;;14.23;92.53
66887;BME280;53798;51.680;5.976;2022-09-09T04:08:44;100644.53;;;14.26;92.50
66887;BME280;53798;51.680;5.976;2022-09-09T04:11:13;100648.75;;;14.31;92.54
66887;BME280;53798;51.680;5.976;2022-09-09T04:13:40;100638.09;;;14.32;92.40
66887;BME280;53798;51.680;5.976;2022-09-09T04:16:11;100644.19;;;14.34;92.30
66887;BME280;53798;51.680;5.976;2022-09-09T04:18:41;100630.84;;;14.36;92.32
66887;BME280;53798;51.680;5.976;2022-09-09T04:21:10;100636.97;;;14.36;92.28
66887;BME280;53798;51.680;5.976;2022-09-09T04:23:40;100635.03;;;14.40;92.27
66887;BME280;53798;51.680;5.976;2022-09-09T04:26:08;100631.44;;;14.41;92.35
66887;BME280;53798;51.680;5.976;2022-09-09T04:28:36;100626.09;;;14.42;92.35
66887;BME280;53798;51.680;5.976;2022-09-09T04:31:16;100627.72;;;14.45;92.15
66887;BME280;53798;51.680;5.976;2022-09-09T04:33:46;100618.81;;;14.46;92.23
66887;BME280;53798;51.680;5.976;2022-09-09T04:36:13;100616.97;;;14.48;92.14
66887;BME280;53798;51.680;5.976;2022-09-09T04:38:41;100620.31;;;14.52;92.25
66887;BME280;53798;51.680;5.976;2022-09-09T04:41:08;100622.72;;;14.56;92.29
66887;BME280;53798;51.680;5.976;2022-09-09T04:43:39;100625.31;;;14.58;92.24
66887;BME280;53798;51.680;5.976;2022-09-09T04:46:07;100622.41;;;14.63;92.12
66887;BME280;53798;51.680;5.976;2022-09-09T04:48:34;100622.22;;;14.67;92.09
66887;BME280;53798;51.680;5.976;2022-09-09T04:51:05;100615.91;;;14.70;92.00
66887;BME280;53798;51.680;5.976;2022-09-09T04:53:34;100613.97;;;14.73;92.04
66887;BME280;53798;51.680;5.976;2022-09-09T04:56:08;100615.59;;;14.76;91.77
66887;BME280;53798;51.680;5.976;2022-09-09T04:58:50;100618.00;;;14.81;92.02
66887;BME280;53798;51.680;5.976;2022-09-09T05:01:21;100615.72;;;14.90;92.14
66887;BME280;53798;51.680;5.976;2022-09-09T05:03:53;100609.06;;;14.99;91.77
66887;BME280;53798;51.680;5.976;2022-09-09T05:06:22;100609.72;;;15.04;91.45
66887;BME280;53798;51.680;5.976;2022-09-09T05:08:54;100600.72;;;15.07;91.16
66887;BME280;53798;51.680;5.976;2022-09-09T05:11:29;100598.91;;;15.07;91.00
66887;BME280;53798;51.680;5.976;2022-09-09T05:14:04;100600.56;;;15.10;90.74
66887;BME280;53798;51.680;5.976;2022-09-09T05:16:32;100593.44;;;15.11;90.51
66887;BME280;53798;51.680;5.976;2022-09-09T05:18:59;100591.72;;;15.10;90.07
66887;BME280;53798;51.680;5.976;2022-09-09T05:21:35;100599.78;;;15.08;90.33
66887;BME280;53798;51.680;5.976;2022-09-09T05:24:02;100603.22;;;15.10;90.16
66887;BME280;53798;51.680;5.976;2022-09-09T05:26:30;100607.56;;;15.11;90.16
66887;BME280;53798;51.680;5.976;2022-09-09T05:28:58;100607.56;;;15.11;90.22
66887;BME280;53798;51.680;5.976;2022-09-09T05:31:29;100609.13;;;15.15;90.17
66887;BME280;53798;51.680;5.976;2022-09-09T05:34:02;100605.38;;;15.19;90.08
66887;BME280;53798;51.680;5.976;2022-09-09T05:36:29;100604.44;;;15.20;89.94
66887;BME280;53798;51.680;5.976;2022-09-09T05:38:56;100598.16;;;15.21;89.75
66887;BME280;53798;51.680;5.976;2022-09-09T05:41:26;100599.03;;;15.22;89.39
66887;BME280;53798;51.680;5.976;2022-09-09T05:43:55;100601.78;;;15.20;89.21
66887;BME280;53798;51.680;5.976;2022-09-09T05:46:23;100606.13;;;15.21;89.26
66887;BME280;53798;51.680;5.976;2022-09-09T05:48:53;100599.13;;;15.20;89.18
66887;BME280;53798;51.680;5.976;2022-09-09T05:51:27;100603.22;;;15.26;89.11
66887;BME280;53798;51.680;5.976;2022-09-09T05:53:58;100605.81;;;15.28;89.16
66887;BME280;53798;51.680;5.976;2022-09-09T05:56:29;100608.13;;;15.34;88.98
66887;BME280;53798;51.680;5.976;2022-09-09T05:58:59;100610.53;;;15.38;88.83
66887;BME280;53798;51.680;5.976;2022-09-09T06:01:32;100605.84;;;15.44;88.67
66887;BME280;53798;51.680;5.976;2022-09-09T06:04:02;100615.97;;;15.53;88.41
66887;BME280;53798;51.680;5.976;2022-09-09T06:06:34;100620.09;;;15.59;88.09
66887;BME280;53798;51.680;5.976;2022-09-09T06:09:08;100610.06;;;15.64;88.19
66887;BME280;53798;51.680;5.976;2022-09-09T06:11:39;100607.13;;;15.68;87.89
66887;BME280;53798;51.680;5.976;2022-09-09T06:14:07;100614.00;;;15.73;87.69
66887;BME280;53798;51.680;5.976;2022-09-09T06:16:37;100615.47;;;15.78;87.55
66887;BME280;53798;51.680;5.976;2022-09-09T06:19:11;100615.00;;;15.88;87.50
66887;BME280;53798;51.680;5.976;2022-09-09T06:21:39;100616.19;;;15.98;86.95
66887;BME280;53798;51.680;5.976;2022-09-09T06:24:08;100615.66;;;16.07;86.58
66887;BME280;53798;51.680;5.976;2022-09-09T06:26:37;100611.25;;;16.22;85.80
66887;BME280;53798;51.680;5.976;2022-09-09T06:29:12;100614.31;;;16.30;85.26
66887;BME280;53798;51.680;5.976;2022-09-09T06:31:41;100618.38;;;16.38;84.72
66887;BME280;53798;51.680;5.976;2022-09-09T06:34:19;100618.25;;;16.39;84.55
66887;BME280;53798;51.680;5.976;2022-09-09T06:36:49;100619.88;;;16.42;84.26
66887;BME280;53798;51.680;5.976;2022-09-09T06:39:17;100616.09;;;16.46;84.28
66887;BME280;53798;51.680;5.976;2022-09-09T06:41:45;100617.63;;;16.50;84.48
66887;BME280;53798;51.680;5.976;2022-09-09T06:44:33;100617.28;;;16.56;84.29
66887;BME280;53798;51.680;5.976;2022-09-09T06:47:02;100614.25;;;16.63;83.53
66887;BME280;53798;51.680;5.976;2022-09-09T06:49:31;100615.69;;;16.68;82.99
66887;BME280;53798;51.680;5.976;2022-09-09T06:51:58;100608.38;;;16.72;82.46
66887;BME280;53798;51.680;5.976;2022-09-09T06:54:27;100614.56;;;16.72;82.19
66887;BME280;53798;51.680;5.976;2022-09-09T06:56:55;100612.47;;;16.77;82.50
66887;BME280;53798;51.680;5.976;2022-09-09T06:59:23;100616.47;;;16.85;82.09
66887;BME280;53798;51.680;5.976;2022-09-09T07:01:53;100617.66;;;16.95;81.91
66887;BME280;53798;51.680;5.976;2022-09-09T07:04:23;100616.16;;;17.05;81.08
66887;BME280;53798;51.680;5.976;2022-09-09T07:06:50;100612.63;;;17.05;81.36
66887;BME280;53798;51.680;5.976;2022-09-09T07:09:24;100614.91;;;17.11;81.14
66887;BME280;53798;51.680;5.976;2022-09-09T07:11:53;100616.56;;;17.14;80.13
66887;BME280;53798;51.680;5.976;2022-09-09T07:14:23;100619.41;;;17.11;80.27
66887;BME280;53798;51.680;5.976;2022-09-09T07:16:57;100616.16;;;17.05;80.49
66887;BME280;53798;51.680;5.976;2022-09-09T07:19:27;100616.91;;;17.07;80.50
66887;BME280;53798;51.680;5.976;2022-09-09T07:21:55;100618.16;;;17.16;79.99
66887;BME280;53798;51.680;5.976;2022-09-09T07:24:24;100623.47;;;17.31;79.49
66887;BME280;53798;51.680;5.976;2022-09-09T07:26:53;100623.59;;;17.44;79.16
66887;BME280;53798;51.680;5.976;2022-09-09T07:29:20;100622.91;;;17.40;79.05
66887;BME280;53798;51.680;5.976;2022-09-09T07:31:50;100615.88;;;17.39;78.92
66887;BME280;53798;51.680;5.976;2022-09-09T07:34:23;100618.75;;;17.36;78.86
66887;BME280;53798;51.680;5.976;2022-09-09T07:36:51;100623.66;;;17.42;78.14
66887;BME280;53798;51.680;5.976;2022-09-09T07:39:19;100615.09;;;17.51;78.15
66887;BME280;53798;51.680;5.976;2022-09-09T07:41:52;100619.09;;;17.59;77.25
66887;BME280;53798;51.680;5.976;2022-09-09T07:44:25;100617.28;;;17.74;77.37
66887;BME280;53798;51.680;5.976;2022-09-09T07:47:06;100621.03;;;17.98;77.48
66887;BME280;53798;51.680;5.976;2022-09-09T07:49:40;100612.59;;;18.19;75.45
66887;BME280;53798;51.680;5.976;2022-09-09T07:52:08;100612.03;;;18.41;75.73
66887;BME280;53798;51.680;5.976;2022-09-09T07:54:39;100621.00;;;18.53;74.23
66887;BME280;53798;51.680;5.976;2022-09-09T07:57:07;100622.50;;;18.57;74.61
66887;BME280;53798;51.680;5.976;2022-09-09T07:59:37;100620.59;;;18.59;74.57
66887;BME280;53798;51.680;5.976;2022-09-09T08:02:05;100629.91;;;18.67;73.87
66887;BME280;53798;51.680;5.976;2022-09-09T08:04:35;100629.47;;;18.73;73.46
66887;BME280;53798;51.680;5.976;2022-09-09T08:07:04;100627.56;;;18.75;72.68
66887;BME280;53798;51.680;5.976;2022-09-09T08:09:41;100628.34;;;18.77;72.53
66887;BME280;53798;51.680;5.976;2022-09-09T08:12:18;100630.69;;;18.82;71.89
66887;BME280;53798;51.680;5.976;2022-09-09T08:14:45;100631.84;;;18.77;72.15
66887;BME280;53798;51.680;5.976;2022-09-09T08:17:12;100630.13;;;18.76;71.96
66887;BME280;53798;51.680;5.976;2022-09-09T08:19:40;100632.59;;;18.80;71.01
66887;BME280;53798;51.680;5.976;2022-09-09T08:22:12;100635.47;;;18.89;70.34
66887;BME280;53798;51.680;5.976;2022-09-09T08:24:39;100632.13;;;19.00;70.70
66887;BME280;53798;51.680;5.976;2022-09-09T08:27:08;100638.97;;;19.17;70.56
66887;BME280;53798;51.680;5.976;2022-09-09T08:29:37;100629.94;;;19.18;69.44
66887;BME280;53798;51.680;5.976;2022-09-09T08:32:05;100643.22;;;19.20;69.22
66887;BME280;53798;51.680;5.976;2022-09-09T08:34:33;100646.97;;;19.17;69.25
66887;BME280;53798;51.680;5.976;2022-09-09T08:37:04;100643.56;;;19.15;69.16
66887;BME280;53798;51.680;5.976;2022-09-09T08:39:37;100643.56;;;19.15;68.87
66887;BME280;53798;51.680;5.976;2022-09-09T08:42:30;100641.06;;;19.25;69.07
66887;BME280;53798;51.680;5.976;2022-09-09T08:45:27;100648.22;;;19.37;68.51
66887;BME280;53798;51.680;5.976;2022-09-09T08:50:40;100640.69;;;19.68;67.38
66887;BME280;53798;51.680;5.976;2022-09-09T08:53:24;100649.66;;;19.93;67.40
66887;BME280;53798;51.680;5.976;2022-09-09T08:56:04;100636.03;;;20.09;66.23
66887;BME280;53798;51.680;5.976;2022-09-09T08:58:52;100649.22;;;20.24;67.10
66887;BME280;53798;51.680;5.976;2022-09-09T09:01:42;100647.09;;;20.40;66.23
66887;BME280;53798;51.680;5.976;2022-09-09T09:10:48;100655.66;;;20.21;65.70
66887;BME280;53798;51.680;5.976;2022-09-09T09:13:30;100660.03;;;19.98;65.79
66887;BME280;53798;51.680;5.976;2022-09-09T09:16:19;100666.91;;;19.76;65.77
66887;BME280;53798;51.680;5.976;2022-09-09T09:19:12;100666.59;;;19.68;65.80
66887;BME280;53798;51.680;5.976;2022-09-09T09:21:44;100657.03;;;19.77;65.78
66887;BME280;53798;51.680;5.976;2022-09-09T09:24:23;100665.47;;;19.96;67.02
66887;BME280;53798;51.680;5.976;2022-09-09T09:27:12;100657.59;;;20.19;65.54
66887;BME280;53798;51.680;5.976;2022-09-09T09:29:51;100650.25;;;20.34;65.14
66887;BME280;53798;51.680;5.976;2022-09-09T09:32:59;100651.13;;;20.46;64.64
66887;BME280;53798;51.680;5.976;2022-09-09T09:35:30;100657.13;;;20.50;63.81
66887;BME280;53798;51.680;5.976;2022-09-09T09:37:58;100655.16;;;20.52;63.74
66887;BME280;53798;51.680;5.976;2022-09-09T09:40:56;100658.53;;;20.42;62.49
66887;BME280;53798;51.680;5.976;2022-09-09T09:43:34;100670.50;;;20.25;63.33
66887;BME280;53798;51.680;5.976;2022-09-09T09:46:22;100658.81;;;20.02;63.57
66887;BME280;53798;51.680;5.976;2022-09-09T09:49:02;100671.91;;;19.81;64.30
66887;BME280;53798;51.680;5.976;2022-09-09T09:51:33;100659.00;;;19.62;64.32
66887;BME280;53798;51.680;5.976;2022-09-09T09:54:27;100659.22;;;19.46;64.60
66887;BME280;53798;51.680;5.976;2022-09-09T09:57:12;100665.03;;;19.39;65.56
66887;BME280;53798;51.680;5.976;2022-09-09T09:59:43;100658.72;;;19.40;65.61
66887;BME280;53798;51.680;5.976;2022-09-09T10:02:21;100663.50;;;19.35;66.08
66887;BME280;53798;51.680;5.976;2022-09-09T10:05:12;100658.72;;;19.28;65.97
66887;BME280;53798;51.680;5.976;2022-09-09T10:08:10;100663.41;;;19.24;65.89
66887;BME280;53798;51.680;5.976;2022-09-09T10:33:51;100657.03;;;19.27;65.81
66887;BME280;53798;51.680;5.976;2022-09-09T10:36:34;100659.91;;;19.23;66.00
66887;BME280;53798;51.680;5.976;2022-09-09T10:39:25;100659.56;;;19.28;66.14
66887;BME280;53798;51.680;5.976;2022-09-09T10:42:14;100666.31;;;19.34;65.99
66887;BME280;53798;51.680;5.976;2022-09-09T10:47:50;100648.50;;;19.71;65.78
66887;BME280;53798;51.680;5.976;2022-09-09T10:53:37;100663.97;;;20.05;64.77
66887;BME280;53798;51.680;5.976;2022-09-09T10:56:16;100663.97;;;20.05;64.35
66887;BME280;53798;51.680;5.976;2022-09-09T10:58:52;100655.97;;;19.92;63.25
66887;BME280;53798;51.680;5.976;2022-09-09T11:02:02;100659.63;;;19.78;64.08
66887;BME280;53798;51.680;5.976;2022-09-09T11:07:52;100656.28;;;19.75;64.22
66887;BME280;53798;51.680;5.976;2022-09-09T11:13:20;100656.31;;;19.62;64.31
66887;BME280;53798;51.680;5.976;2022-09-09T11:15:58;100669.28;;;19.55;64.61
66887;BME280;53798;51.680;5.976;2022-09-09T11:18:36;100666.41;;;19.45;65.01
66887;BME280;53798;51.680;5.976;2022-09-09T11:21:17;100675.28;;;19.33;66.69
66887;BME280;53798;51.680;5.976;2022-09-09T11:23:58;100672.72;;;19.18;67.66
66887;BME280;53798;51.680;5.976;2022-09-09T11:26:41;100677.59;;;18.99;69.06
66887;BME280;53798;51.680;5.976;2022-09-09T11:36:24;100679.63;;;18.55;72.06
66887;BME280;53798;51.680;5.976;2022-09-09T11:39:35;100683.63;;;18.35;72.81
66887;BME280;53798;51.680;5.976;2022-09-09T11:44:41;100684.16;;;18.12;74.13
66887;BME280;53798;51.680;5.976;2022-09-09T11:50:30;100687.50;;;17.87;75.32
66887;BME280;53798;51.680;5.976;2022-09-09T11:55:41;100681.44;;;17.56;76.86
66887;BME280;53798;51.680;5.976;2022-09-09T12:00:47;100680.00;;;17.36;78.28
66887;BME280;53798;51.680;5.976;2022-09-09T12:03:35;100697.34;;;17.29;78.76
66887;BME280;53798;51.680;5.976;2022-09-09T12:06:16;100697.03;;;17.19;79.38
66887;BME280;53798;51.680;5.976;2022-09-09T12:08:56;100682.16;;;17.15;79.83
66887;BME280;53798;51.680;5.976;2022-09-09T12:11:32;100674.19;;;17.29;79.99
66887;BME280;53798;51.680;5.976;2022-09-09T12:14:00;100675.34;;;17.68;80.59
66887;BME280;53798;51.680;5.976;2022-09-09T12:16:35;100673.94;;;18.19;80.54
66887;BME280;53798;51.680;5.976;2022-09-09T12:19:25;100682.22;;;18.56;79.37
66887;BME280;53798;51.680;5.976;2022-09-09T12:25:49;100673.34;;;19.09;77.32
66887;BME280;53798;51.680;5.976;2022-09-09T12:28:22;100666.63;;;19.16;76.36
66887;BME280;53798;51.680;5.976;2022-09-09T12:31:05;100665.88;;;19.27;75.90
66887;BME280;53798;51.680;5.976;2022-09-09T12:33:54;100664.28;;;19.24;76.71
66887;BME280;53798;51.680;5.976;2022-09-09T12:36:27;100664.81;;;19.30;75.95
66887;BME280;53798;51.680;5.976;2022-09-09T12:39:10;100664.16;;;19.26;75.95
66887;BME280;53798;51.680;5.976;2022-09-09T12:41:53;100657.34;;;19.22;75.36
66887;BME280;53798;51.680;5.976;2022-09-09T12:44:25;100657.97;;;19.13;75.54
66887;BME280;53798;51.680;5.976;2022-09-09T12:46:57;100652.63;;;19.13;76.35
66887;BME280;53798;51.680;5.976;2022-09-09T12:49:38;100647.81;;;19.18;76.23
66887;BME280;53798;51.680;5.976;2022-09-09T12:52:34;100641.81;;;19.27;75.64
66887;BME280;53798;51.680;5.976;2022-09-09T12:55:05;100637.41;;;19.39;76.04
66887;BME280;53798;51.680;5.976;2022-09-09T12:57:36;100642.75;;;19.65;76.07
66887;BME280;53798;51.680;5.976;2022-09-09T13:02:54;100637.03;;;20.55;73.26
66887;BME280;53798;51.680;5.976;2022-09-09T13:05:34;100639.00;;;20.77;73.72
66887;BME280;53798;51.680;5.976;2022-09-09T13:08:06;100632.78;;;20.88;71.87
66887;BME280;53798;51.680;5.976;2022-09-09T13:10:41;100635.28;;;21.03;70.78
66887;BME280;53798;51.680;5.976;2022-09-09T13:13:27;100629.16;;;21.01;71.71
66887;BME280;53798;51.680;5.976;2022-09-09T13:15:58;100626.63;;;20.99;69.51
66887;BME280;53798;51.680;5.976;2022-09-09T13:18:33;100629.28;;;20.88;68.79
66887;BME280;53798;51.680;5.976;2022-09-09T13:21:03;100619.16;;;20.80;69.32
66887;BME280;53798;51.680;5.976;2022-09-09T13:23:34;100618.72;;;20.73;69.83
66887;BME280;53798;51.680;5.976;2022-09-09T13:26:06;100620.41;;;20.63;69.83
66887;BME280;53798;51.680;5.976;2022-09-09T13:28:51;100617.47;;;20.55;69.56
66887;BME280;53798;51.680;5.976;2022-09-09T13:31:28;100620.97;;;20.44;69.75
66887;BME280;53798;51.680;5.976;2022-09-09T13:33:58;100602.81;;;20.36;70.05
66887;BME280;53798;51.680;5.976;2022-09-09T13:36:33;100606.53;;;20.22;68.59
66887;BME280;53798;51.680;5.976;2022-09-09T13:39:03;100617.72;;;20.03;69.87
66887;BME280;53798;51.680;5.976;2022-09-09T13:41:33;100610.84;;;19.88;69.46
66887;BME280;53798;51.680;5.976;2022-09-09T13:44:03;100611.91;;;19.72;70.25
66887;BME280;53798;51.680;5.976;2022-09-09T13:51:43;100607.22;;;19.63;71.54
66887;BME280;53798;51.680;5.976;2022-09-09T13:54:15;100605.44;;;19.63;71.65
66887;BME280;53798;51.680;5.976;2022-09-09T13:56:44;100599.00;;;19.66;71.37
66887;BME280;53798;51.680;5.976;2022-09-09T13:59:13;100600.72;;;19.67;71.40
66887;BME280;53798;51.680;5.976;2022-09-09T14:01:42;100600.47;;;19.70;70.85
66887;BME280;53798;51.680;5.976;2022-09-09T14:04:10;100594.63;;;19.65;70.93
66887;BME280;53798;51.680;5.976;2022-09-09T14:06:40;100607.44;;;19.60;71.22
66887;BME280;53798;51.680;5.976;2022-09-09T14:09:13;100602.44;;;19.55;71.43
66887;BME280;53798;51.680;5.976;2022-09-09T14:11:44;100598.91;;;19.54;70.96
66887;BME280;53798;51.680;5.976;2022-09-09T14:14:15;100586.19;;;19.58;71.22
66887;BME280;53798;51.680;5.976;2022-09-09T14:16:42;100597.41;;;19.63;71.00
66887;BME280;53798;51.680;5.976;2022-09-09T14:19:12;100595.78;;;19.74;70.40
66887;BME280;53798;51.680;5.976;2022-09-09T14:21:39;100594.06;;;19.73;70.63
66887;BME280;53798;51.680;5.976;2022-09-09T14:24:06;100598.13;;;19.78;70.32
66887;BME280;53798;51.680;5.976;2022-09-09T14:26:34;100591.47;;;19.84;69.51
66887;BME280;53798;51.680;5.976;2022-09-09T14:29:01;100603.97;;;19.83;68.72
66887;BME280;53798;51.680;5.976;2022-09-09T14:31:28;100599.81;;;19.92;69.17
66887;BME280;53798;51.680;5.976;2022-09-09T14:33:55;100598.03;;;20.04;67.43
66887;BME280;53798;51.680;5.976;2022-09-09T14:36:22;100604.06;;;20.19;67.51
66887;BME280;53798;51.680;5.976;2022-09-09T14:38:51;100609.63;;;20.40;66.83
66887;BME280;53798;51.680;5.976;2022-09-09T14:41:20;100607.38;;;20.58;67.57
66887;BME280;53798;51.680;5.976;2022-09-09T14:43:49;100602.78;;;20.72;66.89
66887;BME280;53798;51.680;5.976;2022-09-09T14:46:19;100606.50;;;20.82;66.70
66887;BME280;53798;51.680;5.976;2022-09-09T14:48:47;100603.72;;;20.95;66.69
66887;BME280;53798;51.680;5.976;2022-09-09T14:51:24;100591.69;;;21.23;65.72
66887;BME280;53798;51.680;5.976;2022-09-09T14:53:55;100599.34;;;21.39;65.37
66887;BME280;53798;51.680;5.976;2022-09-09T14:56:29;100592.13;;;21.51;64.66
66887;BME280;53798;51.680;5.976;2022-09-09T14:58:58;100588.94;;;21.57;65.44
66887;BME280;53798;51.680;5.976;2022-09-09T15:01:27;100587.50;;;21.53;65.16
66887;BME280;53798;51.680;5.976;2022-09-09T15:03:59;100587.16;;;21.47;65.49
66887;BME280;53798;51.680;5.976;2022-09-09T15:06:31;100584.59;;;21.34;65.63
66887;BME280;53798;51.680;5.976;2022-09-09T15:09:00;100582.53;;;21.26;65.90
66887;BME280;53798;51.680;5.976;2022-09-09T15:11:31;100580.44;;;21.30;66.40
66887;BME280;53798;51.680;5.976;2022-09-09T15:14:07;100581.44;;;21.63;65.84
66887;BME280;53798;51.680;5.976;2022-09-09T15:16:41;100576.63;;;21.89;65.48
66887;BME280;53798;51.680;5.976;2022-09-09T15:19:08;100577.53;;;22.11;65.48
66887;BME280;53798;51.680;5.976;2022-09-09T15:21:37;100587.34;;;22.22;64.44